Time;durP1;ratioP1;P1;durP2;ratioP2;P2;SDS_P1;SDS_P2;PMS_P1;PMS_P2;Temp;Humidity;BMP_temperature;BMP_pressure;BME280_temperature;BME280_humidity;BME280_pressure;Samples;Min_cycle;Max_cycle;Signal;HPM_P1;HPM_P2
2023/09/18 00:00:08;;;;;;;10.43;2.28;;;;;;;15.26;100.00;99856.47;5062631;28;20717;-68
2023/09/18 00:02:35;;;;;;;9.30;1.90;;;;;;;15.17;100.00;99862.41;5064934;28;20053;-67
2023/09/18 00:05:02;;;;;;;5.70;1.65;;;;;;;15.17;100.00;99865.03;5066210;28;20132;-67
2023/09/18 00:07:29;;;;;;;6.10;1.90;;;;;;;15.40;100.00;99866.03;5067490;28;20068;-67
2023/09/18 00:09:56;;;;;;;6.35;1.63;;;;;;;15.38;100.00;99866.16;5068783;28;20390;-67
2023/09/18 00:12:22;;;;;;;4.93;1.25;;;;;;;15.27;100.00;99857.34;5064790;28;20474;-67
2023/09/18 00:14:50;;;;;;;7.35;1.67;;;;;;;15.28;100.00;99851.97;5064862;28;20073;-67
2023/09/18 00:17:17;;;;;;;10.32;2.05;;;;;;;15.11;100.00;99847.03;5063749;28;20132;-67
2023/09/18 00:19:43;;;;;;;6.97;1.70;;;;;;;15.08;100.00;99842.81;5072326;28;20124;-67
2023/09/18 00:22:10;;;;;;;9.13;1.90;;;;;;;15.13;100.00;99824.88;5064760;28;20268;-67
2023/09/18 00:24:37;;;;;;;10.88;2.08;;;;;;;15.09;100.00;99817.31;5066097;28;20052;-67
2023/09/18 00:27:04;;;;;;;4.38;1.50;;;;;;;15.17;100.00;99792.06;5062145;28;20049;-67
2023/09/18 00:29:30;;;;;;;6.60;1.80;;;;;;;15.17;100.00;99783.31;5081354;28;20443;-67
2023/09/18 00:31:57;;;;;;;9.10;2.33;;;;;;;15.08;100.00;99787.44;5070947;28;20406;-67
2023/09/18 00:34:24;;;;;;;6.53;1.95;;;;;;;15.12;100.00;99781.00;5072233;28;20056;-67
2023/09/18 00:36:51;;;;;;;11.18;2.22;;;;;;;15.04;100.00;99774.59;5067159;28;20091;-67
2023/09/18 00:39:18;;;;;;;10.35;2.22;;;;;;;14.93;100.00;99778.84;5072279;28;20048;-67
2023/09/18 00:41:49;;;;;;;6.75;1.58;;;;;;;15.14;100.00;99752.75;5070536;28;20048;-67
2023/09/18 00:44:16;;;;;;;8.93;2.00;;;;;;;14.98;100.00;99745.09;5059743;28;20470;-67
2023/09/18 00:46:43;;;;;;;7.30;2.00;;;;;;;15.12;100.00;99733.56;5065753;28;20049;-67
2023/09/18 00:49:11;;;;;;;9.38;2.28;;;;;;;15.15;100.00;99740.38;5061167;28;20053;-67
2023/09/18 00:51:38;;;;;;;8.80;2.13;;;;;;;15.19;100.00;99720.75;5071708;28;20056;-67
2023/09/18 00:54:05;;;;;;;10.10;2.30;;;;;;;15.05;100.00;99726.19;5058648;28;20049;-67
2023/09/18 00:56:33;;;;;;;8.15;1.67;;;;;;;15.30;100.00;99715.56;5070920;28;20455;-68
2023/09/18 00:59:02;;;;;;;10.25;2.00;;;;;;;15.15;100.00;99701.69;5067095;28;20056;-68
2023/09/18 01:01:31;;;;;;;8.90;1.63;;;;;;;15.10;100.00;99687.16;5060817;28;20494;-67
2023/09/18 01:03:59;;;;;;;10.77;2.08;;;;;;;15.12;100.00;99690.50;5054263;28;20045;-67
2023/09/18 01:06:30;;;;;;;10.35;2.30;;;;;;;15.13;100.00;99685.13;5062380;28;20058;-67
2023/09/18 01:08:57;;;;;;;7.63;1.83;;;;;;;15.10;100.00;99672.19;5059267;28;20056;-67
2023/09/18 01:11:39;;;;;;;7.47;1.85;;;;;;;15.23;100.00;99672.13;5062752;28;20111;-67
2023/09/18 01:14:24;;;;;;;9.67;1.93;;;;;;;15.17;100.00;99657.59;5055835;28;20449;-67
2023/09/18 01:16:58;;;;;;;12.93;3.30;;;;;;;15.05;100.00;99662.91;5063785;28;20286;-67
2023/09/18 01:19:38;;;;;;;8.27;1.88;;;;;;;15.14;100.00;99649.09;5062658;28;20135;-67
2023/09/18 01:22:06;;;;;;;9.73;2.17;;;;;;;15.13;100.00;99645.59;5063679;28;20049;-67
2023/09/18 01:24:35;;;;;;;9.38;1.85;;;;;;;15.16;100.00;99626.09;5070153;28;20052;-67
2023/09/18 01:27:04;;;;;;;8.48;1.88;;;;;;;15.10;100.00;99613.34;5069032;28;20055;-67
2023/09/18 01:29:31;;;;;;;10.50;2.25;;;;;;;15.21;100.00;99612.53;5070952;28;20048;-67
2023/09/18 01:31:58;;;;;;;9.13;1.90;;;;;;;15.28;100.00;99604.06;5070716;28;20056;-67
2023/09/18 01:34:49;;;;;;;7.90;1.88;;;;;;;15.44;100.00;99616.94;5077320;28;20058;-67
2023/09/18 01:37:20;;;;;;;11.48;2.30;;;;;;;15.37;100.00;99606.00;5058868;28;20083;-67
2023/09/18 01:39:49;;;;;;;7.25;2.08;;;;;;;15.42;100.00;99603.00;5070848;28;20049;-67
2023/09/18 01:42:16;;;;;;;8.90;1.75;;;;;;;15.42;100.00;99591.63;5070559;28;20692;-67
2023/09/18 01:44:43;;;;;;;15.00;3.10;;;;;;;15.37;100.00;99586.72;5070524;28;20391;-67
2023/09/18 01:47:23;;;;;;;9.15;2.13;;;;;;;15.59;100.00;99585.91;5067259;28;20478;-67
2023/09/18 01:49:50;;;;;;;12.25;3.92;;;;;;;15.79;100.00;99563.28;5070889;28;20324;-67
2023/09/18 01:52:17;;;;;;;10.45;2.10;;;;;;;16.03;100.00;99565.78;5070650;28;20127;-67
2023/09/18 01:54:44;;;;;;;12.93;2.97;;;;;;;15.82;100.00;99562.22;5070955;28;20052;-67
2023/09/18 01:57:12;;;;;;;7.80;1.95;;;;;;;15.59;100.00;99566.59;5069535;28;20093;-67
2023/09/18 01:59:39;;;;;;;8.02;1.65;;;;;;;15.41;100.00;99560.94;5070822;28;20434;-67
2023/09/18 02:02:08;;;;;;;11.43;2.28;;;;;;;15.30;100.00;99564.41;5070600;28;20059;-67
2023/09/18 02:04:36;;;;;;;11.70;2.53;;;;;;;15.25;100.00;99556.00;5067281;28;20044;-67
2023/09/18 02:07:23;;;;;;;11.38;2.75;;;;;;;15.30;100.00;99545.94;5069541;28;20041;-67
2023/09/18 02:09:49;;;;;;;7.20;1.92;;;;;;;15.33;100.00;99546.56;5070666;28;20059;-67
2023/09/18 02:12:17;;;;;;;9.90;2.30;;;;;;;15.37;100.00;99537.44;5055355;28;20662;-67
2023/09/18 02:14:45;;;;;;;8.88;2.35;;;;;;;15.23;100.00;99524.47;5066756;28;20071;-67
2023/09/18 02:17:12;;;;;;;8.88;1.95;;;;;;;15.38;100.00;99518.00;5060057;28;20040;-67
2023/09/18 02:19:38;;;;;;;7.75;2.17;;;;;;;15.25;100.00;99517.28;5069038;28;20478;-67
2023/09/18 02:22:05;;;;;;;8.63;2.17;;;;;;;15.25;100.00;99514.63;5069785;28;20080;-67
2023/09/18 02:24:32;;;;;;;9.38;2.50;;;;;;;15.18;100.00;99506.34;5067789;28;20441;-67
2023/09/18 02:26:58;;;;;;;10.60;2.65;;;;;;;15.32;100.00;99499.19;5066294;28;20048;-68
2023/09/18 02:29:25;;;;;;;9.52;2.15;;;;;;;15.32;100.00;99492.13;5065565;28;20591;-67
2023/09/18 02:31:53;;;;;;;10.52;2.40;;;;;;;15.32;100.00;99489.47;5067921;28;20383;-67
2023/09/18 02:34:20;;;;;;;13.88;3.53;;;;;;;15.23;100.00;99484.06;5056698;28;20052;-67
2023/09/18 02:36:47;;;;;;;11.00;3.58;;;;;;;15.19;100.00;99475.53;5056150;28;20045;-67
2023/09/18 02:39:14;;;;;;;16.15;3.03;;;;;;;15.20;100.00;99453.50;5066836;28;20079;-67
2023/09/18 02:41:40;;;;;;;11.23;2.63;;;;;;;15.18;100.00;99443.06;5068988;28;20071;-67
2023/09/18 02:44:07;;;;;;;12.10;2.58;;;;;;;15.25;100.00;99432.06;5068835;28;20052;-67
2023/09/18 02:46:34;;;;;;;16.95;2.53;;;;;;;15.22;100.00;99435.75;5057819;28;20052;-67
2023/09/18 02:49:02;;;;;;;10.18;2.45;;;;;;;15.32;100.00;99422.72;5069477;28;20132;-68
2023/09/18 02:51:31;;;;;;;9.35;2.45;;;;;;;15.35;100.00;99406.63;5069172;28;20088;-68
2023/09/18 02:53:58;;;;;;;15.00;3.40;;;;;;;15.34;100.00;99404.97;5056376;28;20045;-67
2023/09/18 02:56:25;;;;;;;13.63;2.92;;;;;;;15.29;100.00;99394.78;5067260;28;20137;-67
2023/09/18 02:58:51;;;;;;;14.73;2.95;;;;;;;15.23;100.00;99382.09;5070046;28;20044;-67
2023/09/18 03:01:19;;;;;;;15.35;3.17;;;;;;;15.34;100.00;99370.69;5065215;28;20409;-67
2023/09/18 03:03:46;;;;;;;12.45;2.28;;;;;;;15.36;100.00;99366.13;5065926;28;20061;-67
2023/09/18 03:06:13;;;;;;;9.18;2.58;;;;;;;15.37;100.00;99359.91;5057491;28;20448;-67
2023/09/18 03:08:40;;;;;;;10.00;3.00;;;;;;;15.41;100.00;99357.88;5068942;28;20155;-67
2023/09/18 03:11:14;;;;;;;10.05;2.28;;;;;;;15.29;100.00;99355.22;5068955;28;20045;-67
2023/09/18 03:13:48;;;;;;;13.38;3.47;;;;;;;15.15;100.00;99324.66;5067702;28;20052;-67
2023/09/18 03:16:14;;;;;;;9.70;2.30;;;;;;;15.31;100.00;99342.75;5053067;28;20053;-67
2023/09/18 03:18:41;;;;;;;11.10;2.55;;;;;;;15.37;100.00;99336.16;5057483;28;20127;-67
2023/09/18 03:21:08;;;;;;;14.80;3.20;;;;;;;15.43;100.00;99321.66;5063184;28;20098;-67
2023/09/18 03:23:35;;;;;;;12.02;2.90;;;;;;;15.37;100.00;99317.72;5057584;28;20135;-67
2023/09/18 03:26:02;;;;;;;11.55;2.28;;;;;;;15.52;100.00;99321.72;5065754;28;20402;-67
2023/09/18 03:28:29;;;;;;;9.52;2.53;;;;;;;15.31;100.00;99313.75;5068576;28;20060;-67
2023/09/18 03:30:58;;;;;;;12.40;2.60;;;;;;;15.25;100.00;99313.41;5068382;28;20131;-67
2023/09/18 03:33:24;;;;;;;13.88;3.85;;;;;;;15.06;100.00;99293.78;5069368;28;20056;-67
2023/09/18 03:35:54;;;;;;;13.55;3.15;;;;;;;15.28;100.00;99299.97;5066799;28;20052;-67
2023/09/18 03:38:21;;;;;;;11.18;2.53;;;;;;;15.27;100.00;99293.88;5068637;28;20056;-67
2023/09/18 03:40:48;;;;;;;13.13;2.90;;;;;;;15.00;100.00;99287.19;5068346;28;20056;-67
2023/09/18 03:43:15;;;;;;;12.23;2.40;;;;;;;15.15;100.00;99303.56;5068167;28;20436;-67
2023/09/18 03:45:42;;;;;;;9.07;2.30;;;;;;;15.13;100.00;99286.22;5063940;28;20052;-67
2023/09/18 03:48:10;;;;;;;14.70;2.97;;;;;;;15.24;100.00;99286.19;5060735;28;20504;-67
2023/09/18 03:50:38;;;;;;;15.95;3.55;;;;;;;15.17;100.00;99280.59;5072972;28;20049;-68
2023/09/18 03:53:07;;;;;;;15.50;3.13;;;;;;;15.15;100.00;99265.84;5072519;28;20066;-67
2023/09/18 03:55:33;;;;;;;9.55;2.30;;;;;;;15.18;100.00;99261.16;5062098;28;20622;-67
2023/09/18 03:58:00;;;;;;;11.88;2.78;;;;;;;15.08;100.00;99260.22;5071721;28;20094;-67
2023/09/18 04:00:27;;;;;;;11.98;3.13;;;;;;;15.06;100.00;99254.22;5073695;28;20052;-67
2023/09/18 04:02:54;;;;;;;13.48;3.17;;;;;;;15.13;100.00;99255.41;5073505;28;20075;-67
2023/09/18 04:05:21;;;;;;;8.85;2.83;;;;;;;15.04;100.00;99234.25;5073218;28;20067;-68
2023/09/18 04:07:48;;;;;;;18.05;3.83;;;;;;;15.06;100.00;99230.50;5060772;28;20675;-67
2023/09/18 04:10:19;;;;;;;10.82;3.03;;;;;;;15.05;100.00;99233.25;5063076;28;20091;-67
2023/09/18 04:12:46;;;;;;;13.15;2.55;;;;;;;15.14;100.00;99217.56;5060436;28;20456;-67
2023/09/18 04:15:17;;;;;;;10.70;3.22;;;;;;;15.04;100.00;99203.44;5067668;28;20174;-67
2023/09/18 04:17:44;;;;;;;13.55;3.53;;;;;;;15.07;100.00;99210.25;5070937;28;20452;-67
2023/09/18 04:20:12;;;;;;;13.13;3.30;;;;;;;15.03;100.00;99203.56;5062108;28;20088;-67
2023/09/18 04:22:44;;;;;;;13.00;2.97;;;;;;;15.14;100.00;99203.56;5072875;28;20053;-68
2023/09/18 04:25:13;;;;;;;20.92;4.60;;;;;;;15.10;100.00;99197.69;5071236;28;20072;-68
2023/09/18 04:27:39;;;;;;;21.33;3.40;;;;;;;15.19;100.00;99188.16;5071549;28;20554;-67
2023/09/18 04:30:09;;;;;;;14.32;3.50;;;;;;;15.20;100.00;99176.69;5072801;28;20425;-67
2023/09/18 04:32:40;;;;;;;10.35;2.85;;;;;;;15.32;100.00;99170.41;5069824;28;20105;-67
2023/09/18 04:35:08;;;;;;;12.13;3.22;;;;;;;15.11;100.00;99138.72;5070042;28;20055;-67
2023/09/18 04:37:38;;;;;;;11.60;2.78;;;;;;;15.35;100.00;99153.47;5070295;28;20056;-67
2023/09/18 04:40:09;;;;;;;12.60;3.63;;;;;;;15.27;100.00;99146.22;5058878;28;20474;-67
2023/09/18 04:42:37;;;;;;;13.88;3.40;;;;;;;15.24;100.00;99143.81;5072049;28;20102;-67
2023/09/18 04:45:05;;;;;;;16.52;3.90;;;;;;;15.14;100.00;99143.75;5071398;28;20056;-67
2023/09/18 04:47:32;;;;;;;16.15;3.08;;;;;;;15.23;100.00;99136.03;5063985;28;20805;-67
2023/09/18 04:49:59;;;;;;;12.05;3.40;;;;;;;15.22;100.00;99135.19;5071411;28;20078;-67
2023/09/18 04:52:25;;;;;;;14.98;4.00;;;;;;;15.19;100.00;99127.53;5071998;28;20051;-68
2023/09/18 04:54:54;;;;;;;14.27;3.20;;;;;;;15.27;100.00;99126.91;5072252;28;20535;-68
2023/09/18 04:57:22;;;;;;;9.23;2.55;;;;;;;15.26;100.00;99122.59;5070184;28;20071;-67
2023/09/18 04:59:49;;;;;;;11.05;3.17;;;;;;;15.26;100.00;99101.50;5072085;28;20544;-68
2023/09/18 05:02:36;;;;;;;10.85;3.05;;;;;;;15.31;100.00;99112.50;5072011;28;20056;-67
2023/09/18 05:05:04;;;;;;;12.63;3.53;;;;;;;15.34;100.00;99101.72;5068911;28;20135;-68
2023/09/18 05:07:32;;;;;;;11.07;3.15;;;;;;;15.25;100.00;99094.56;5062995;28;20528;-67
2023/09/18 05:09:59;;;;;;;17.92;3.70;;;;;;;15.09;100.00;99080.03;5067084;28;20480;-67
2023/09/18 05:12:25;;;;;;;15.20;3.80;;;;;;;15.14;100.00;99069.94;5071413;28;20422;-67
2023/09/18 05:14:52;;;;;;;12.23;3.65;;;;;;;15.22;100.00;99066.66;5069957;28;20359;-67
2023/09/18 05:17:19;;;;;;;17.48;3.63;;;;;;;15.21;100.00;99059.72;5062407;28;20076;-68
2023/09/18 05:19:46;;;;;;;11.43;3.00;;;;;;;15.21;100.00;99065.00;5071990;28;20579;-68
2023/09/18 05:22:13;;;;;;;8.65;3.30;;;;;;;15.24;100.00;99062.09;5071755;28;20060;-68
2023/09/18 05:24:40;;;;;;;12.45;2.78;;;;;;;15.30;100.00;99047.56;5066594;28;20045;-67
2023/09/18 05:27:07;;;;;;;14.10;3.42;;;;;;;15.37;100.00;99052.19;5067746;28;20056;-67
2023/09/18 05:29:38;;;;;;;11.13;3.38;;;;;;;15.42;100.00;99048.31;5059952;28;20171;-67
2023/09/18 05:32:05;;;;;;;15.98;3.58;;;;;;;15.43;100.00;99031.53;5061930;28;20057;-69
2023/09/18 05:34:31;;;;;;;13.45;3.60;;;;;;;15.25;100.00;99028.66;5060054;28;20063;-67
2023/09/18 05:36:58;;;;;;;16.58;4.53;;;;;;;15.22;100.00;99015.72;5059225;28;20044;-67
2023/09/18 05:39:25;;;;;;;15.40;3.80;;;;;;;15.32;100.00;99000.81;5061108;28;20399;-67
2023/09/18 05:41:52;;;;;;;15.02;3.55;;;;;;;15.46;100.00;99018.94;5070424;28;20067;-67
2023/09/18 05:44:19;;;;;;;12.43;3.17;;;;;;;15.24;100.00;99001.44;5063099;28;20472;-67
2023/09/18 05:46:46;;;;;;;12.00;3.70;;;;;;;15.36;100.00;99000.41;5057238;28;20068;-67
2023/09/18 05:49:13;;;;;;;16.55;3.72;;;;;;;15.32;100.00;99000.81;5063459;28;20044;-67
2023/09/18 05:51:39;;;;;;;13.73;3.33;;;;;;;15.34;100.00;98986.53;5061793;28;20068;-67
2023/09/18 05:54:06;;;;;;;13.20;2.70;;;;;;;15.48;100.00;98981.88;5062028;28;20047;-67
2023/09/18 05:56:33;;;;;;;12.23;3.17;;;;;;;15.64;100.00;98957.66;5062951;28;20131;-68
2023/09/18 05:59:00;;;;;;;15.43;3.60;;;;;;;15.68;100.00;98959.03;5062413;28;20041;-67
2023/09/18 06:01:27;;;;;;;11.05;3.25;;;;;;;15.63;100.00;98951.50;5062330;28;20492;-67
2023/09/18 06:03:54;;;;;;;11.52;2.72;;;;;;;15.57;100.00;98938.88;5062261;28;20083;-68
2023/09/18 06:06:21;;;;;;;18.60;4.50;;;;;;;15.66;100.00;98951.25;5066603;28;20413;-67
2023/09/18 06:08:48;;;;;;;16.02;4.15;;;;;;;15.46;100.00;98945.09;5062242;28;20470;-67
2023/09/18 06:11:14;;;;;;;14.10;3.63;;;;;;;15.40;100.00;98926.31;5069613;28;20056;-67
2023/09/18 06:13:41;;;;;;;17.52;3.75;;;;;;;15.52;100.00;98927.88;5066651;28;20064;-68
2023/09/18 06:16:08;;;;;;;18.50;4.82;;;;;;;15.49;100.00;98926.38;5062799;28;20124;-67
2023/09/18 06:18:38;;;;;;;17.25;4.40;;;;;;;15.37;100.00;98919.53;5070780;28;20540;-67
2023/09/18 06:21:05;;;;;;;14.40;4.10;;;;;;;15.41;100.00;98909.53;5070445;28;20151;-67
2023/09/18 06:23:32;;;;;;;9.32;3.10;;;;;;;15.40;100.00;98911.31;5070046;28;20482;-67
2023/09/18 06:25:59;;;;;;;13.32;3.55;;;;;;;15.49;100.00;98907.91;5069972;28;20547;-67
2023/09/18 06:28:26;;;;;;;13.90;3.70;;;;;;;15.57;100.00;98891.41;5050599;28;20230;-67
2023/09/18 06:30:53;;;;;;;13.23;3.97;;;;;;;15.54;100.00;98874.03;5052949;28;20050;-67
2023/09/18 06:33:21;;;;;;;9.48;2.80;;;;;;;15.46;100.00;98875.69;5056061;28;20083;-67
2023/09/18 06:35:48;;;;;;;12.82;4.10;;;;;;;15.45;100.00;98864.28;5064569;28;20486;-67
2023/09/18 06:38:15;;;;;;;13.18;3.20;;;;;;;15.47;100.00;98869.44;5063140;28;20052;-67
2023/09/18 06:40:42;;;;;;;18.08;4.65;;;;;;;15.30;100.00;98855.09;5048504;28;20487;-68
2023/09/18 06:43:09;;;;;;;13.23;3.92;;;;;;;15.60;100.00;98870.03;5052569;28;20490;-68
2023/09/18 06:45:37;;;;;;;15.82;4.75;;;;;;;15.46;100.00;98859.88;5058374;28;20060;-68
2023/09/18 06:48:05;;;;;;;23.00;4.80;;;;;;;15.48;100.00;98865.84;5054003;28;20049;-68
2023/09/18 06:50:31;;;;;;;12.55;4.78;;;;;;;15.50;100.00;98854.16;5058383;28;20552;-68
2023/09/18 06:52:58;;;;;;;14.43;4.15;;;;;;;15.58;100.00;98848.22;5065149;28;20050;-68
2023/09/18 06:55:25;;;;;;;15.18;4.10;;;;;;;15.63;100.00;98840.72;5057796;28;20045;-68
2023/09/18 06:57:53;;;;;;;13.32;4.50;;;;;;;15.73;100.00;98835.47;5062541;28;20122;-68
2023/09/18 07:00:20;;;;;;;15.48;4.55;;;;;;;15.73;100.00;98828.38;5059554;28;20076;-68
2023/09/18 07:02:49;;;;;;;16.73;4.53;;;;;;;15.41;100.00;98818.06;5058618;28;20076;-68
2023/09/18 07:05:16;;;;;;;15.85;4.07;;;;;;;15.38;100.00;98811.25;5063969;28;20759;-68
2023/09/18 07:07:43;;;;;;;17.05;4.50;;;;;;;15.42;100.00;98809.16;5058521;28;20056;-68
2023/09/18 07:10:10;;;;;;;15.77;5.35;;;;;;;15.28;100.00;98809.56;5061643;28;20437;-68
2023/09/18 07:12:37;;;;;;;15.10;4.32;;;;;;;15.36;100.00;98797.38;5055510;28;20560;-68
2023/09/18 07:15:05;;;;;;;15.18;3.83;;;;;;;15.42;100.00;98798.63;5049244;28;20123;-68
2023/09/18 07:17:35;;;;;;;12.38;4.28;;;;;;;15.45;100.00;98806.25;5061804;28;20064;-68
2023/09/18 07:20:13;;;;;;;12.55;4.70;;;;;;;15.33;100.00;98805.56;5046162;28;20049;-68
2023/09/18 07:22:47;;;;;;;15.25;4.43;;;;;;;15.52;100.00;98791.56;5063556;28;20052;-68
2023/09/18 07:25:15;;;;;;;11.85;3.90;;;;;;;15.55;100.00;98782.56;5054901;28;20139;-68
2023/09/18 07:27:44;;;;;;;12.10;3.80;;;;;;;15.65;100.00;98788.69;5062368;28;20063;-68
2023/09/18 07:30:15;;;;;;;14.68;4.30;;;;;;;15.61;100.00;98787.28;5067310;28;20141;-68
2023/09/18 07:32:42;;;;;;;16.00;5.03;;;;;;;15.54;100.00;98783.50;5067473;28;20487;-68
2023/09/18 07:35:10;;;;;;;18.08;5.15;;;;;;;15.59;100.00;98770.75;5068980;28;20044;-68
2023/09/18 07:37:37;;;;;;;13.65;5.07;;;;;;;15.49;100.00;98762.84;5061733;28;20048;-68
2023/09/18 07:40:05;;;;;;;21.90;7.22;;;;;;;15.34;100.00;98756.28;5056480;28;20448;-68
2023/09/18 07:42:33;;;;;;;18.15;6.45;;;;;;;15.48;100.00;98755.88;5069093;28;20566;-68
2023/09/18 07:44:59;;;;;;;14.50;4.90;;;;;;;15.61;100.00;98744.25;5065367;28;20056;-68
2023/09/18 07:47:26;;;;;;;15.32;5.15;;;;;;;15.63;100.00;98735.22;5061089;28;20603;-68
2023/09/18 07:49:54;;;;;;;13.50;3.80;;;;;;;15.77;100.00;98731.34;5069847;28;20048;-68
2023/09/18 07:52:21;;;;;;;15.18;4.13;;;;;;;15.74;100.00;98721.03;5075819;28;20049;-68
2023/09/18 07:54:48;;;;;;;19.95;5.45;;;;;;;15.47;100.00;98703.28;5065643;28;20106;-68
2023/09/18 07:57:15;;;;;;;12.77;4.50;;;;;;;15.61;100.00;98705.50;5060750;28;20045;-68
2023/09/18 07:59:42;;;;;;;14.45;5.13;;;;;;;15.48;100.00;98700.50;5050344;28;20386;-68
2023/09/18 08:02:09;;;;;;;13.35;4.88;;;;;;;15.50;100.00;98695.09;5068964;28;20047;-68
2023/09/18 08:04:36;;;;;;;10.48;4.78;;;;;;;15.46;100.00;98694.53;5069155;28;20049;-68
2023/09/18 08:07:06;;;;;;;11.02;4.55;;;;;;;15.40;100.00;98662.63;5057562;28;20056;-68
2023/09/18 08:09:36;;;;;;;14.82;4.63;;;;;;;15.43;100.00;98681.63;5069883;28;20437;-68
2023/09/18 08:12:04;;;;;;;12.18;4.68;;;;;;;15.53;100.00;98677.19;5070416;28;20478;-68
2023/09/18 08:14:31;;;;;;;16.48;5.68;;;;;;;15.56;100.00;98676.91;5069780;28;20048;-68
2023/09/18 08:16:59;;;;;;;12.57;5.88;;;;;;;15.56;100.00;98663.72;5068154;28;20513;-68
2023/09/18 08:19:26;;;;;;;13.02;4.93;;;;;;;15.51;100.00;98641.38;5080383;28;20056;-68
2023/09/18 08:21:55;;;;;;;13.70;6.03;;;;;;;15.49;100.00;98638.91;5051019;28;20048;-68
2023/09/18 08:24:23;;;;;;;13.95;5.60;;;;;;;15.64;100.00;98641.91;5069568;28;20072;-68
2023/09/18 08:26:50;;;;;;;16.33;6.05;;;;;;;15.52;100.00;98627.22;5069180;28;20098;-68
2023/09/18 08:29:17;;;;;;;12.88;5.20;;;;;;;15.61;100.00;98629.00;5066664;28;20045;-68
2023/09/18 08:31:44;;;;;;;14.52;5.53;;;;;;;15.72;100.00;98614.81;5066949;28;20349;-68
2023/09/18 08:34:11;;;;;;;17.00;6.55;;;;;;;15.62;100.00;98608.75;5070386;28;20045;-68
2023/09/18 08:36:38;;;;;;;14.88;5.55;;;;;;;15.70;100.00;98611.50;5072122;28;20492;-68
2023/09/18 08:39:05;;;;;;;14.77;6.22;;;;;;;15.67;100.00;98607.34;5060006;28;20045;-68
2023/09/18 08:41:36;;;;;;;13.77;6.28;;;;;;;15.74;100.00;98597.91;5072451;28;20383;-68
2023/09/18 08:44:03;;;;;;;14.80;6.68;;;;;;;15.77;100.00;98588.88;5061972;28;20053;-68
2023/09/18 08:46:30;;;;;;;17.05;7.18;;;;;;;15.81;100.00;98598.19;5070674;28;20052;-68
2023/09/18 08:49:00;;;;;;;12.85;6.85;;;;;;;15.84;100.00;98589.13;5071830;28;20466;-68
2023/09/18 08:51:28;;;;;;;15.80;7.15;;;;;;;15.84;100.00;98594.41;5070621;28;20556;-68
2023/09/18 08:53:56;;;;;;;19.42;8.20;;;;;;;15.77;100.00;98582.78;5053244;28;20052;-69
2023/09/18 08:56:24;;;;;;;16.15;7.95;;;;;;;15.76;100.00;98566.13;5064597;28;20044;-68
2023/09/18 08:58:51;;;;;;;14.00;6.47;;;;;;;15.79;100.00;98571.09;5059551;28;20041;-68
2023/09/18 09:01:19;;;;;;;14.65;6.80;;;;;;;15.86;100.00;98582.72;5072665;28;20143;-68
2023/09/18 09:03:46;;;;;;;17.50;7.72;;;;;;;15.92;100.00;98566.34;5067868;28;20048;-68
2023/09/18 09:06:13;;;;;;;14.77;7.35;;;;;;;15.91;100.00;98551.47;5064667;28;20052;-68
2023/09/18 09:08:40;;;;;;;17.35;6.72;;;;;;;16.08;100.00;98562.25;5071338;28;20102;-68
2023/09/18 09:11:07;;;;;;;11.60;4.65;;;;;;;16.09;100.00;98546.25;5072447;28;20098;-68
2023/09/18 09:13:34;;;;;;;15.52;7.57;;;;;;;16.08;100.00;98544.59;5072271;28;20482;-68
2023/09/18 09:16:13;;;;;;;14.02;6.57;;;;;;;16.23;100.00;98525.63;5070258;28;20049;-68
2023/09/18 09:18:49;;;;;;;15.20;8.10;;;;;;;16.17;100.00;98534.16;5063269;28;20076;-68
2023/09/18 09:21:17;;;;;;;20.63;10.48;;;;;;;15.90;100.00;98510.22;5058077;28;20052;-67
2023/09/18 09:23:55;;;;;;;21.95;8.90;;;;;;;16.15;100.00;98526.38;5071514;28;20056;-68
2023/09/18 09:26:23;;;;;;;22.38;10.27;;;;;;;16.01;100.00;98521.59;5068020;28;20072;-68
2023/09/18 09:28:50;;;;;;;22.63;9.95;;;;;;;15.94;100.00;98513.41;5059143;28;20239;-68
2023/09/18 09:31:27;;;;;;;24.05;11.38;;;;;;;15.97;100.00;98507.00;5069762;28;20048;-68
2023/09/18 09:33:55;;;;;;;24.20;9.73;;;;;;;16.11;100.00;98507.34;5071764;28;20083;-68
2023/09/18 09:36:24;;;;;;;22.73;10.73;;;;;;;15.92;100.00;98488.97;5071043;28;20052;-68
2023/09/18 09:39:02;;;;;;;22.20;10.00;;;;;;;15.99;100.00;98502.41;5071454;28;20051;-68
2023/09/18 09:41:33;;;;;;;21.58;9.18;;;;;;;16.16;100.00;98495.50;5067835;28;20056;-68
2023/09/18 09:44:00;;;;;;;19.60;9.98;;;;;;;15.90;100.00;98470.66;5052578;28;20053;-68
2023/09/18 09:46:27;;;;;;;25.15;11.13;;;;;;;15.82;100.00;98481.09;5064932;28;20551;-68
2023/09/18 09:49:05;;;;;;;23.80;11.32;;;;;;;15.86;100.00;98460.53;5069190;28;20044;-67
2023/09/18 09:51:34;;;;;;;20.95;8.70;;;;;;;15.94;100.00;98463.28;5071978;28;20074;-68
2023/09/18 09:54:01;;;;;;;20.63;10.00;;;;;;;15.78;100.00;98461.28;5071445;28;20049;-69
2023/09/18 09:56:50;;;;;;;24.70;10.32;;;;;;;15.69;100.00;98448.94;5070948;28;20041;-69
2023/09/18 09:59:19;;;;;;;15.55;7.22;;;;;;;15.85;100.00;98437.78;5060576;28;20383;-69
2023/09/18 10:01:48;;;;;;;18.90;8.07;;;;;;;15.75;100.00;98429.91;5054384;28;20040;-68
2023/09/18 10:04:18;;;;;;;18.40;6.53;;;;;;;15.85;100.00;98432.50;5072040;28;20044;-69
2023/09/18 10:06:52;;;;;;;17.70;6.70;;;;;;;15.93;100.00;98427.28;5070091;28;20044;-69
2023/09/18 10:09:20;;;;;;;17.60;8.02;;;;;;;15.75;100.00;98411.44;5071538;28;20059;-69
2023/09/18 10:11:53;;;;;;;21.38;6.65;;;;;;;15.98;100.00;98424.22;5057397;28;20059;-69
2023/09/18 10:14:32;;;;;;;15.80;6.70;;;;;;;15.87;100.00;98422.63;5066489;28;20063;-68
2023/09/18 10:17:19;;;;;;;13.15;6.28;;;;;;;15.88;100.00;98404.00;5070263;28;20048;-68
2023/09/18 10:20:08;;;;;;;15.25;6.10;;;;;;;15.92;100.00;98397.44;5071529;28;20053;-69
2023/09/18 10:22:42;;;;;;;15.65;5.18;;;;;;;15.95;100.00;98391.03;5068151;28;20133;-68
2023/09/18 10:25:09;;;;;;;11.77;5.07;;;;;;;16.08;100.00;98380.13;5062831;28;20040;-68
2023/09/18 10:27:40;;;;;;;11.68;4.50;;;;;;;16.10;100.00;98383.44;5069830;28;20508;-68
2023/09/18 10:30:11;;;;;;;9.75;3.70;;;;;;;16.10;100.00;98360.50;5086159;28;20051;-67
2023/09/18 10:32:40;;;;;;;8.32;3.00;;;;;;;16.21;100.00;98370.00;5067059;28;20075;-69
2023/09/18 10:35:12;;;;;;;7.85;2.78;;;;;;;16.36;100.00;98367.66;5051337;28;20052;-69
2023/09/18 10:37:41;;;;;;;10.98;3.50;;;;;;;16.36;100.00;98365.03;5064678;28;20059;-66
2023/09/18 10:40:09;;;;;;;9.90;3.85;;;;;;;16.40;100.00;98357.63;5064224;28;20052;-69
2023/09/18 10:42:41;;;;;;;6.07;2.30;;;;;;;16.38;100.00;98354.28;5064716;28;20490;-69
2023/09/18 10:45:10;;;;;;;8.80;2.60;;;;;;;16.46;100.00;98355.19;5070789;28;20135;-68
2023/09/18 10:47:45;;;;;;;6.60;2.25;;;;;;;16.49;100.00;98339.03;5070060;28;20472;-69
2023/09/18 10:50:12;;;;;;;6.45;2.00;;;;;;;16.64;100.00;98344.59;5057451;28;20132;-68
2023/09/18 10:52:44;;;;;;;5.18;1.77;;;;;;;16.63;100.00;98340.28;5070474;28;20452;-68
2023/09/18 10:55:14;;;;;;;5.32;1.60;;;;;;;16.78;100.00;98331.78;5070417;28;20075;-68
2023/09/18 10:58:00;;;;;;;5.65;1.73;;;;;;;16.78;100.00;98342.38;5069961;28;20478;-68
2023/09/18 11:00:30;;;;;;;2.83;1.23;;;;;;;16.83;100.00;98335.66;5070158;28;20533;-67
2023/09/18 11:03:17;;;;;;;4.40;1.42;;;;;;;17.05;100.00;98344.03;5069585;28;20055;-67
2023/09/18 11:06:01;;;;;;;4.38;1.38;;;;;;;17.13;100.00;98338.78;5058517;28;20048;-67
2023/09/18 11:08:34;;;;;;;3.45;1.40;;;;;;;17.23;100.00;98333.41;5069011;28;20044;-68
2023/09/18 11:11:11;;;;;;;4.20;1.73;;;;;;;17.33;100.00;98343.84;5067140;28;20501;-68
2023/09/18 11:13:40;;;;;;;3.70;1.30;;;;;;;17.39;100.00;98354.59;5069396;28;20044;-68
2023/09/18 11:16:25;;;;;;;2.33;0.98;;;;;;;17.18;100.00;98360.28;5069237;28;20051;-68
2023/09/18 11:19:01;;;;;;;2.83;0.90;;;;;;;16.97;100.00;98357.22;5069083;28;20052;-68
2023/09/18 11:21:30;;;;;;;0.82;0.68;;;;;;;17.17;100.00;98366.56;5050526;28;20052;-68
2023/09/18 11:24:19;;;;;;;2.58;0.85;;;;;;;17.03;100.00;98372.44;5064535;28;20397;-68
2023/09/18 11:26:48;;;;;;;1.52;0.70;;;;;;;16.93;100.00;98371.72;5056643;28;20044;-69